sensor_id;sensor_type;location;lat;lon;timestamp;P1;durP1;ratioP1;P2;durP2;ratioP2
62435;SDS011;48480;50.252;18.848;2022-12-29T00:01:47;18.70;;;9.20;;
62435;SDS011;48480;50.252;18.848;2022-12-29T00:04:13;18.20;;;9.00;;
62435;SDS011;48480;50.252;18.848;2022-12-29T00:06:39;16.20;;;8.10;;
62435;SDS011;48480;50.252;18.848;2022-12-29T00:09:05;20.20;;;8.90;;
62435;SDS011;48480;50.252;18.848;2022-12-29T00:11:31;21.20;;;10.20;;
62435;SDS011;48480;50.252;18.848;2022-12-29T00:13:56;16.50;;;9.30;;
62435;SDS011;48480;50.252;18.848;2022-12-29T00:16:41;23.50;;;9.50;;
62435;SDS011;48480;50.252;18.848;2022-12-29T00:19:11;18.00;;;9.60;;
62435;SDS011;48480;50.252;18.848;2022-12-29T00:21:56;20.40;;;9.20;;
62435;SDS011;48480;50.252;18.848;2022-12-29T00:24:41;19.60;;;9.00;;
62435;SDS011;48480;50.252;18.848;2022-12-29T00:27:18;20.10;;;8.90;;
62435;SDS011;48480;50.252;18.848;2022-12-29T00:30:13;20.10;;;8.80;;
62435;SDS011;48480;50.252;18.848;2022-12-29T00:33:09;13.80;;;7.90;;
62435;SDS011;48480;50.252;18.848;2022-12-29T00:36:02;18.10;;;8.90;;
62435;SDS011;48480;50.252;18.848;2022-12-29T00:38:31;18.50;;;8.10;;
62435;SDS011;48480;50.252;18.848;2022-12-29T00:41:19;17.40;;;8.60;;
62435;SDS011;48480;50.252;18.848;2022-12-29T00:44:03;18.80;;;8.50;;
62435;SDS011;48480;50.252;18.848;2022-12-29T00:46:35;18.60;;;9.20;;
62435;SDS011;48480;50.252;18.848;2022-12-29T00:49:05;18.60;;;9.20;;
62435;SDS011;48480;50.252;18.848;2022-12-29T00:51:51;16.40;;;8.00;;
62435;SDS011;48480;50.252;18.848;2022-12-29T00:54:17;16.80;;;7.70;;
62435;SDS011;48480;50.252;18.848;2022-12-29T00:56:43;14.70;;;7.80;;
62435;SDS011;48480;50.252;18.848;2022-12-29T00:59:10;16.90;;;9.10;;
62435;SDS011;48480;50.252;18.848;2022-12-29T01:01:36;15.50;;;7.60;;
62435;SDS011;48480;50.252;18.848;2022-12-29T01:04:03;20.70;;;9.50;;
62435;SDS011;48480;50.252;18.848;2022-12-29T01:06:30;21.20;;;9.80;;
62435;SDS011;48480;50.252;18.848;2022-12-29T01:08:57;22.30;;;9.70;;
62435;SDS011;48480;50.252;18.848;2022-12-29T01:11:41;18.60;;;10.00;;
62435;SDS011;48480;50.252;18.848;2022-12-29T01:14:06;20.00;;;11.00;;
62435;SDS011;48480;50.252;18.848;2022-12-29T01:16:32;24.90;;;12.20;;
62435;SDS011;48480;50.252;18.848;2022-12-29T01:18:58;19.30;;;10.50;;
62435;SDS011;48480;50.252;18.848;2022-12-29T01:21:23;22.10;;;12.10;;
62435;SDS011;48480;50.252;18.848;2022-12-29T01:23:49;26.70;;;11.30;;
62435;SDS011;48480;50.252;18.848;2022-12-29T01:26:16;24.20;;;11.40;;
62435;SDS011;48480;50.252;18.848;2022-12-29T01:28:42;22.90;;;12.10;;
62435;SDS011;48480;50.252;18.848;2022-12-29T01:31:09;22.80;;;12.10;;
62435;SDS011;48480;50.252;18.848;2022-12-29T01:33:35;22.20;;;11.20;;
62435;SDS011;48480;50.252;18.848;2022-12-29T01:36:01;23.50;;;12.00;;
62435;SDS011;48480;50.252;18.848;2022-12-29T01:38:27;23.70;;;12.10;;
62435;SDS011;48480;50.252;18.848;2022-12-29T01:40:53;19.70;;;10.60;;
62435;SDS011;48480;50.252;18.848;2022-12-29T01:43:18;19.40;;;9.90;;
62435;SDS011;48480;50.252;18.848;2022-12-29T01:45:45;19.50;;;10.60;;
62435;SDS011;48480;50.252;18.848;2022-12-29T01:48:15;17.70;;;10.40;;
62435;SDS011;48480;50.252;18.848;2022-12-29T01:50:45;16.10;;;9.90;;
62435;SDS011;48480;50.252;18.848;2022-12-29T01:53:26;16.60;;;9.20;;
62435;SDS011;48480;50.252;18.848;2022-12-29T01:55:57;17.90;;;9.30;;
62435;SDS011;48480;50.252;18.848;2022-12-29T01:58:27;14.70;;;8.80;;
62435;SDS011;48480;50.252;18.848;2022-12-29T02:00:57;14.10;;;7.60;;
62435;SDS011;48480;50.252;18.848;2022-12-29T02:03:24;14.30;;;7.70;;
62435;SDS011;48480;50.252;18.848;2022-12-29T02:05:58;12.60;;;7.50;;
62435;SDS011;48480;50.252;18.848;2022-12-29T02:08:29;10.70;;;6.50;;
62435;SDS011;48480;50.252;18.848;2022-12-29T02:10:55;15.00;;;7.00;;
62435;SDS011;48480;50.252;18.848;2022-12-29T02:13:27;11.30;;;6.70;;
62435;SDS011;48480;50.252;18.848;2022-12-29T02:16:01;13.30;;;6.70;;
62435;SDS011;48480;50.252;18.848;2022-12-29T02:18:33;16.60;;;7.90;;
62435;SDS011;48480;50.252;18.848;2022-12-29T02:26:28;11.70;;;5.90;;
62435;SDS011;48480;50.252;18.848;2022-12-29T02:29:16;14.30;;;6.80;;
62435;SDS011;48480;50.252;18.848;2022-12-29T02:32:03;14.80;;;6.60;;
62435;SDS011;48480;50.252;18.848;2022-12-29T02:37:31;16.30;;;7.00;;
62435;SDS011;48480;50.252;18.848;2022-12-29T02:42:50;10.60;;;6.30;;
62435;SDS011;48480;50.252;18.848;2022-12-29T02:45:27;11.40;;;6.20;;
62435;SDS011;48480;50.252;18.848;2022-12-29T02:53:28;9.30;;;6.30;;
62435;SDS011;48480;50.252;18.848;2022-12-29T02:56:14;8.50;;;5.00;;
62435;SDS011;48480;50.252;18.848;2022-12-29T02:58:39;7.60;;;5.30;;
62435;SDS011;48480;50.252;18.848;2022-12-29T03:17:50;8.60;;;5.10;;
62435;SDS011;48480;50.252;18.848;2022-12-29T03:20:36;10.20;;;6.00;;
62435;SDS011;48480;50.252;18.848;2022-12-29T03:23:16;7.10;;;4.90;;
62435;SDS011;48480;50.252;18.848;2022-12-29T03:25:46;9.10;;;5.20;;
62435;SDS011;48480;50.252;18.848;2022-12-29T03:28:35;10.00;;;5.70;;
62435;SDS011;48480;50.252;18.848;2022-12-29T03:31:04;10.00;;;5.70;;
62435;SDS011;48480;50.252;18.848;2022-12-29T03:33:33;9.00;;;6.30;;
62435;SDS011;48480;50.252;18.848;2022-12-29T03:36:04;9.10;;;5.80;;
62435;SDS011;48480;50.252;18.848;2022-12-29T03:38:37;12.30;;;6.20;;
62435;SDS011;48480;50.252;18.848;2022-12-29T03:41:10;11.30;;;6.00;;
62435;SDS011;48480;50.252;18.848;2022-12-29T03:43:38;10.10;;;6.60;;
62435;SDS011;48480;50.252;18.848;2022-12-29T03:46:03;11.90;;;5.80;;
62435;SDS011;48480;50.252;18.848;2022-12-29T03:48:29;9.00;;;6.00;;
62435;SDS011;48480;50.252;18.848;2022-12-29T03:50:54;8.90;;;5.30;;
62435;SDS011;48480;50.252;18.848;2022-12-29T03:53:20;10.20;;;5.40;;
62435;SDS011;48480;50.252;18.848;2022-12-29T03:55:46;7.70;;;4.90;;
62435;SDS011;48480;50.252;18.848;2022-12-29T03:58:11;7.40;;;5.00;;
62435;SDS011;48480;50.252;18.848;2022-12-29T04:00:37;8.60;;;5.40;;
62435;SDS011;48480;50.252;18.848;2022-12-29T04:03:02;6.60;;;4.60;;
62435;SDS011;48480;50.252;18.848;2022-12-29T04:05:28;8.30;;;4.90;;
62435;SDS011;48480;50.252;18.848;2022-12-29T04:07:53;7.20;;;4.20;;
62435;SDS011;48480;50.252;18.848;2022-12-29T04:10:19;8.30;;;5.00;;
62435;SDS011;48480;50.252;18.848;2022-12-29T04:12:44;8.90;;;4.80;;
62435;SDS011;48480;50.252;18.848;2022-12-29T04:15:12;9.60;;;5.50;;
62435;SDS011;48480;50.252;18.848;2022-12-29T04:17:37;10.40;;;5.60;;
62435;SDS011;48480;50.252;18.848;2022-12-29T04:20:03;12.40;;;5.80;;
62435;SDS011;48480;50.252;18.848;2022-12-29T04:22:48;11.40;;;6.80;;
62435;SDS011;48480;50.252;18.848;2022-12-29T04:25:13;14.90;;;7.00;;
62435;SDS011;48480;50.252;18.848;2022-12-29T04:27:39;14.30;;;7.10;;
62435;SDS011;48480;50.252;18.848;2022-12-29T04:30:04;18.50;;;8.20;;
62435;SDS011;48480;50.252;18.848;2022-12-29T04:32:30;16.00;;;8.90;;
62435;SDS011;48480;50.252;18.848;2022-12-29T04:34:55;20.50;;;9.10;;
62435;SDS011;48480;50.252;18.848;2022-12-29T04:37:21;16.10;;;9.00;;
62435;SDS011;48480;50.252;18.848;2022-12-29T04:39:46;19.40;;;8.00;;
62435;SDS011;48480;50.252;18.848;2022-12-29T04:42:13;13.00;;;7.10;;
62435;SDS011;48480;50.252;18.848;2022-12-29T04:44:39;13.10;;;6.60;;
62435;SDS011;48480;50.252;18.848;2022-12-29T04:47:05;12.50;;;7.40;;
62435;SDS011;48480;50.252;18.848;2022-12-29T04:49:30;12.40;;;6.80;;
62435;SDS011;48480;50.252;18.848;2022-12-29T04:51:55;12.80;;;6.40;;
62435;SDS011;48480;50.252;18.848;2022-12-29T04:54:21;12.30;;;6.90;;
62435;SDS011;48480;50.252;18.848;2022-12-29T04:56:46;10.40;;;6.20;;
62435;SDS011;48480;50.252;18.848;2022-12-29T04:59:12;10.90;;;6.70;;
62435;SDS011;48480;50.252;18.848;2022-12-29T05:01:37;10.30;;;6.10;;
62435;SDS011;48480;50.252;18.848;2022-12-29T05:04:02;10.80;;;7.00;;
62435;SDS011;48480;50.252;18.848;2022-12-29T05:06:28;12.30;;;7.00;;
62435;SDS011;48480;50.252;18.848;2022-12-29T05:08:53;14.40;;;8.00;;
62435;SDS011;48480;50.252;18.848;2022-12-29T05:11:19;22.10;;;9.60;;
62435;SDS011;48480;50.252;18.848;2022-12-29T05:13:45;15.10;;;8.70;;
62435;SDS011;48480;50.252;18.848;2022-12-29T05:16:12;16.90;;;8.60;;
62435;SDS011;48480;50.252;18.848;2022-12-29T05:18:37;17.40;;;10.00;;
62435;SDS011;48480;50.252;18.848;2022-12-29T05:21:02;18.30;;;11.20;;
62435;SDS011;48480;50.252;18.848;2022-12-29T05:23:28;16.90;;;11.30;;
62435;SDS011;48480;50.252;18.848;2022-12-29T05:25:53;17.00;;;10.10;;
62435;SDS011;48480;50.252;18.848;2022-12-29T05:28:19;13.70;;;9.30;;
62435;SDS011;48480;50.252;18.848;2022-12-29T05:30:46;19.80;;;9.10;;
62435;SDS011;48480;50.252;18.848;2022-12-29T05:33:13;20.10;;;9.90;;
62435;SDS011;48480;50.252;18.848;2022-12-29T05:35:38;19.20;;;10.30;;
62435;SDS011;48480;50.252;18.848;2022-12-29T05:38:04;20.90;;;11.20;;
62435;SDS011;48480;50.252;18.848;2022-12-29T05:40:29;22.00;;;12.20;;
62435;SDS011;48480;50.252;18.848;2022-12-29T05:42:54;25.10;;;12.00;;
62435;SDS011;48480;50.252;18.848;2022-12-29T05:45:20;35.30;;;12.90;;
62435;SDS011;48480;50.252;18.848;2022-12-29T05:47:45;27.80;;;12.90;;
62435;SDS011;48480;50.252;18.848;2022-12-29T05:50:10;19.90;;;9.60;;
62435;SDS011;48480;50.252;18.848;2022-12-29T05:52:36;22.50;;;9.50;;
62435;SDS011;48480;50.252;18.848;2022-12-29T05:55:01;23.00;;;11.40;;
62435;SDS011;48480;50.252;18.848;2022-12-29T05:57:27;22.40;;;11.30;;
62435;SDS011;48480;50.252;18.848;2022-12-29T05:59:52;21.90;;;11.10;;
62435;SDS011;48480;50.252;18.848;2022-12-29T06:02:18;20.80;;;11.30;;
62435;SDS011;48480;50.252;18.848;2022-12-29T06:04:43;23.80;;;11.50;;
62435;SDS011;48480;50.252;18.848;2022-12-29T06:07:08;16.50;;;10.40;;
62435;SDS011;48480;50.252;18.848;2022-12-29T06:09:34;19.70;;;9.60;;
62435;SDS011;48480;50.252;18.848;2022-12-29T06:11:59;21.90;;;11.20;;
62435;SDS011;48480;50.252;18.848;2022-12-29T06:14:25;21.20;;;11.40;;
62435;SDS011;48480;50.252;18.848;2022-12-29T06:16:50;21.70;;;12.60;;
62435;SDS011;48480;50.252;18.848;2022-12-29T06:19:15;22.60;;;11.60;;
62435;SDS011;48480;50.252;18.848;2022-12-29T06:21:41;21.00;;;12.70;;
62435;SDS011;48480;50.252;18.848;2022-12-29T06:24:06;17.60;;;10.40;;
62435;SDS011;48480;50.252;18.848;2022-12-29T06:26:32;18.30;;;11.40;;
62435;SDS011;48480;50.252;18.848;2022-12-29T06:28:57;18.60;;;9.10;;
62435;SDS011;48480;50.252;18.848;2022-12-29T06:31:22;18.70;;;8.50;;
62435;SDS011;48480;50.252;18.848;2022-12-29T06:33:48;16.50;;;9.10;;
62435;SDS011;48480;50.252;18.848;2022-12-29T06:36:13;16.70;;;8.40;;
62435;SDS011;48480;50.252;18.848;2022-12-29T06:38:38;17.00;;;8.20;;
62435;SDS011;48480;50.252;18.848;2022-12-29T06:41:04;14.20;;;7.80;;
62435;SDS011;48480;50.252;18.848;2022-12-29T06:43:29;15.50;;;8.40;;
62435;SDS011;48480;50.252;18.848;2022-12-29T06:45:55;13.90;;;7.90;;
62435;SDS011;48480;50.252;18.848;2022-12-29T06:48:21;16.30;;;9.40;;
62435;SDS011;48480;50.252;18.848;2022-12-29T06:50:47;14.60;;;8.20;;
62435;SDS011;48480;50.252;18.848;2022-12-29T06:53:12;12.20;;;6.80;;
62435;SDS011;48480;50.252;18.848;2022-12-29T06:55:38;13.40;;;8.10;;
62435;SDS011;48480;50.252;18.848;2022-12-29T06:58:03;12.50;;;8.00;;
62435;SDS011;48480;50.252;18.848;2022-12-29T07:00:28;15.90;;;9.10;;
62435;SDS011;48480;50.252;18.848;2022-12-29T07:02:54;15.70;;;8.10;;
62435;SDS011;48480;50.252;18.848;2022-12-29T07:05:21;16.50;;;8.10;;
62435;SDS011;48480;50.252;18.848;2022-12-29T07:07:46;14.50;;;7.20;;
62435;SDS011;48480;50.252;18.848;2022-12-29T07:10:12;12.50;;;7.50;;
62435;SDS011;48480;50.252;18.848;2022-12-29T07:12:37;15.00;;;7.40;;
62435;SDS011;48480;50.252;18.848;2022-12-29T07:15:03;12.90;;;7.00;;
62435;SDS011;48480;50.252;18.848;2022-12-29T07:17:28;17.40;;;8.10;;
62435;SDS011;48480;50.252;18.848;2022-12-29T07:19:54;14.20;;;7.80;;
62435;SDS011;48480;50.252;18.848;2022-12-29T07:22:19;12.90;;;6.80;;
62435;SDS011;48480;50.252;18.848;2022-12-29T07:24:45;13.70;;;7.50;;
62435;SDS011;48480;50.252;18.848;2022-12-29T07:27:10;14.90;;;8.00;;
62435;SDS011;48480;50.252;18.848;2022-12-29T07:29:39;13.00;;;7.00;;
62435;SDS011;48480;50.252;18.848;2022-12-29T07:32:04;16.90;;;8.00;;
62435;SDS011;48480;50.252;18.848;2022-12-29T07:34:30;14.10;;;7.90;;
62435;SDS011;48480;50.252;18.848;2022-12-29T07:37:00;15.60;;;7.70;;
62435;SDS011;48480;50.252;18.848;2022-12-29T07:39:26;15.10;;;7.50;;
62435;SDS011;48480;50.252;18.848;2022-12-29T07:41:51;13.00;;;6.30;;
62435;SDS011;48480;50.252;18.848;2022-12-29T07:44:17;10.50;;;6.60;;
62435;SDS011;48480;50.252;18.848;2022-12-29T07:46:42;11.20;;;5.70;;
62435;SDS011;48480;50.252;18.848;2022-12-29T07:49:08;12.00;;;5.90;;
62435;SDS011;48480;50.252;18.848;2022-12-29T07:51:33;12.00;;;6.20;;
62435;SDS011;48480;50.252;18.848;2022-12-29T07:53:59;9.50;;;6.20;;
62435;SDS011;48480;50.252;18.848;2022-12-29T07:56:26;12.70;;;6.10;;
62435;SDS011;48480;50.252;18.848;2022-12-29T07:58:51;10.80;;;6.10;;
62435;SDS011;48480;50.252;18.848;2022-12-29T08:01:17;10.80;;;6.80;;
62435;SDS011;48480;50.252;18.848;2022-12-29T08:03:43;15.00;;;8.40;;
62435;SDS011;48480;50.252;18.848;2022-12-29T08:06:09;13.50;;;7.60;;
62435;SDS011;48480;50.252;18.848;2022-12-29T08:08:36;15.50;;;8.40;;
62435;SDS011;48480;50.252;18.848;2022-12-29T08:11:01;14.00;;;8.80;;
62435;SDS011;48480;50.252;18.848;2022-12-29T08:13:30;16.00;;;8.20;;
62435;SDS011;48480;50.252;18.848;2022-12-29T08:15:57;13.40;;;7.30;;
62435;SDS011;48480;50.252;18.848;2022-12-29T08:18:23;11.10;;;6.70;;
62435;SDS011;48480;50.252;18.848;2022-12-29T08:20:49;14.10;;;7.00;;
62435;SDS011;48480;50.252;18.848;2022-12-29T08:23:14;14.60;;;7.50;;
62435;SDS011;48480;50.252;18.848;2022-12-29T08:25:41;13.40;;;7.50;;
62435;SDS011;48480;50.252;18.848;2022-12-29T08:28:07;14.50;;;6.70;;
62435;SDS011;48480;50.252;18.848;2022-12-29T08:30:32;12.70;;;8.00;;
62435;SDS011;48480;50.252;18.848;2022-12-29T08:32:58;17.00;;;8.20;;
62435;SDS011;48480;50.252;18.848;2022-12-29T08:35:23;13.80;;;7.70;;
62435;SDS011;48480;50.252;18.848;2022-12-29T08:37:48;14.90;;;9.50;;
62435;SDS011;48480;50.252;18.848;2022-12-29T08:40:14;12.70;;;7.80;;
62435;SDS011;48480;50.252;18.848;2022-12-29T08:42:39;17.60;;;8.50;;
62435;SDS011;48480;50.252;18.848;2022-12-29T08:45:05;16.00;;;9.10;;
62435;SDS011;48480;50.252;18.848;2022-12-29T08:47:31;18.70;;;9.70;;
62435;SDS011;48480;50.252;18.848;2022-12-29T08:49:57;17.50;;;8.70;;
62435;SDS011;48480;50.252;18.848;2022-12-29T08:52:22;16.30;;;9.80;;
62435;SDS011;48480;50.252;18.848;2022-12-29T08:54:48;18.80;;;10.40;;
62435;SDS011;48480;50.252;18.848;2022-12-29T08:57:13;16.90;;;9.20;;
62435;SDS011;48480;50.252;18.848;2022-12-29T08:59:39;14.60;;;9.00;;
62435;SDS011;48480;50.252;18.848;2022-12-29T09:02:05;16.50;;;10.00;;
62435;SDS011;48480;50.252;18.848;2022-12-29T09:04:30;24.20;;;11.10;;
62435;SDS011;48480;50.252;18.848;2022-12-29T09:06:56;21.20;;;11.20;;
62435;SDS011;48480;50.252;18.848;2022-12-29T09:09:21;18.60;;;10.30;;
62435;SDS011;48480;50.252;18.848;2022-12-29T09:11:47;28.90;;;12.10;;
62435;SDS011;48480;50.252;18.848;2022-12-29T09:14:13;24.30;;;11.70;;
62435;SDS011;48480;50.252;18.848;2022-12-29T09:16:39;19.00;;;10.20;;
62435;SDS011;48480;50.252;18.848;2022-12-29T09:19:23;24.80;;;11.30;;
62435;SDS011;48480;50.252;18.848;2022-12-29T09:21:49;13.20;;;8.70;;
62435;SDS011;48480;50.252;18.848;2022-12-29T09:24:14;18.90;;;9.90;;
62435;SDS011;48480;50.252;18.848;2022-12-29T09:26:40;18.30;;;9.80;;
62435;SDS011;48480;50.252;18.848;2022-12-29T09:29:05;16.00;;;9.20;;
62435;SDS011;48480;50.252;18.848;2022-12-29T09:31:30;16.40;;;9.10;;
62435;SDS011;48480;50.252;18.848;2022-12-29T09:33:56;16.10;;;8.90;;
62435;SDS011;48480;50.252;18.848;2022-12-29T09:36:21;18.70;;;10.10;;
62435;SDS011;48480;50.252;18.848;2022-12-29T09:38:46;17.30;;;10.00;;
62435;SDS011;48480;50.252;18.848;2022-12-29T09:41:20;15.80;;;9.10;;
62435;SDS011;48480;50.252;18.848;2022-12-29T09:46:39;17.00;;;10.10;;
62435;SDS011;48480;50.252;18.848;2022-12-29T09:49:15;16.70;;;9.80;;
62435;SDS011;48480;50.252;18.848;2022-12-29T09:51:48;15.40;;;10.00;;
62435;SDS011;48480;50.252;18.848;2022-12-29T09:57:04;18.30;;;9.40;;
62435;SDS011;48480;50.252;18.848;2022-12-29T09:59:38;19.10;;;11.20;;
62435;SDS011;48480;50.252;18.848;2022-12-29T10:04:48;19.50;;;10.90;;
62435;SDS011;48480;50.252;18.848;2022-12-29T10:07:17;20.50;;;10.70;;
62435;SDS011;48480;50.252;18.848;2022-12-29T10:23:58;19.70;;;10.00;;
62435;SDS011;48480;50.252;18.848;2022-12-29T10:26:27;17.50;;;8.40;;
62435;SDS011;48480;50.252;18.848;2022-12-29T10:29:06;14.80;;;8.60;;
62435;SDS011;48480;50.252;18.848;2022-12-29T10:31:46;16.50;;;8.80;;
62435;SDS011;48480;50.252;18.848;2022-12-29T10:34:19;18.20;;;10.00;;
62435;SDS011;48480;50.252;18.848;2022-12-29T10:36:51;16.80;;;9.60;;
62435;SDS011;48480;50.252;18.848;2022-12-29T10:39:29;18.70;;;9.80;;
62435;SDS011;48480;50.252;18.848;2022-12-29T10:44:39;25.10;;;14.50;;
62435;SDS011;48480;50.252;18.848;2022-12-29T10:47:12;25.50;;;13.60;;
62435;SDS011;48480;50.252;18.848;2022-12-29T10:49:42;15.20;;;9.90;;
62435;SDS011;48480;50.252;18.848;2022-12-29T10:52:10;17.20;;;9.50;;
62435;SDS011;48480;50.252;18.848;2022-12-29T10:54:39;11.10;;;7.50;;
62435;SDS011;48480;50.252;18.848;2022-12-29T10:57:36;14.90;;;7.70;;
62435;SDS011;48480;50.252;18.848;2022-12-29T11:00:13;15.30;;;10.30;;
62435;SDS011;48480;50.252;18.848;2022-12-29T11:05:41;18.40;;;8.60;;
62435;SDS011;48480;50.252;18.848;2022-12-29T11:08:32;20.70;;;9.20;;
62435;SDS011;48480;50.252;18.848;2022-12-29T11:13:29;23.50;;;10.60;;
62435;SDS011;48480;50.252;18.848;2022-12-29T11:15:56;19.00;;;8.40;;
62435;SDS011;48480;50.252;18.848;2022-12-29T11:18:40;18.70;;;10.10;;
62435;SDS011;48480;50.252;18.848;2022-12-29T11:21:31;18.70;;;10.00;;
62435;SDS011;48480;50.252;18.848;2022-12-29T11:24:17;18.00;;;9.00;;
62435;SDS011;48480;50.252;18.848;2022-12-29T11:26:46;16.00;;;9.60;;
62435;SDS011;48480;50.252;18.848;2022-12-29T11:31:41;14.20;;;8.40;;
62435;SDS011;48480;50.252;18.848;2022-12-29T11:34:22;16.40;;;8.70;;
62435;SDS011;48480;50.252;18.848;2022-12-29T11:37:00;11.50;;;7.60;;
62435;SDS011;48480;50.252;18.848;2022-12-29T11:39:37;12.30;;;8.20;;
62435;SDS011;48480;50.252;18.848;2022-12-29T11:42:18;12.90;;;7.10;;
62435;SDS011;48480;50.252;18.848;2022-12-29T11:44:57;15.20;;;7.50;;
62435;SDS011;48480;50.252;18.848;2022-12-29T11:47:30;13.80;;;8.00;;
62435;SDS011;48480;50.252;18.848;2022-12-29T11:49:58;12.40;;;8.40;;
62435;SDS011;48480;50.252;18.848;2022-12-29T11:52:28;14.60;;;7.60;;
62435;SDS011;48480;50.252;18.848;2022-12-29T11:54:58;14.50;;;8.40;;
62435;SDS011;48480;50.252;18.848;2022-12-29T11:57:26;14.20;;;8.60;;
62435;SDS011;48480;50.252;18.848;2022-12-29T11:59:53;13.20;;;7.90;;
62435;SDS011;48480;50.252;18.848;2022-12-29T12:08:17;19.80;;;10.50;;
62435;SDS011;48480;50.252;18.848;2022-12-29T12:10:44;16.10;;;7.90;;
62435;SDS011;48480;50.252;18.848;2022-12-29T12:15:56;14.20;;;8.40;;
62435;SDS011;48480;50.252;18.848;2022-12-29T12:21:10;12.00;;;6.90;;
62435;SDS011;48480;50.252;18.848;2022-12-29T12:23:44;12.80;;;6.60;;
62435;SDS011;48480;50.252;18.848;2022-12-29T12:26:19;15.40;;;9.00;;
62435;SDS011;48480;50.252;18.848;2022-12-29T12:28:53;15.70;;;8.50;;
62435;SDS011;48480;50.252;18.848;2022-12-29T12:34:17;14.50;;;8.30;;
62435;SDS011;48480;50.252;18.848;2022-12-29T12:39:25;19.40;;;8.60;;
62435;SDS011;48480;50.252;18.848;2022-12-29T12:42:25;14.80;;;8.40;;
62435;SDS011;48480;50.252;18.848;2022-12-29T12:50:39;19.40;;;10.40;;
62435;SDS011;48480;50.252;18.848;2022-12-29T12:53:22;29.70;;;13.70;;
62435;SDS011;48480;50.252;18.848;2022-12-29T13:07:04;23.80;;;12.40;;
62435;SDS011;48480;50.252;18.848;2022-12-29T13:15:47;18.70;;;10.70;;
62435;SDS011;48480;50.252;18.848;2022-12-29T13:24:26;15.40;;;10.40;;
62435;SDS011;48480;50.252;18.848;2022-12-29T13:27:06;22.50;;;10.50;;
62435;SDS011;48480;50.252;18.848;2022-12-29T13:32:28;24.90;;;13.30;;
62435;SDS011;48480;50.252;18.848;2022-12-29T13:37:53;30.00;;;14.40;;
62435;SDS011;48480;50.252;18.848;2022-12-29T13:42:49;27.50;;;13.10;;
62435;SDS011;48480;50.252;18.848;2022-12-29T13:45:16;20.70;;;12.40;;
62435;SDS011;48480;50.252;18.848;2022-12-29T13:47:47;21.90;;;12.60;;
62435;SDS011;48480;50.252;18.848;2022-12-29T13:50:19;25.50;;;13.20;;
62435;SDS011;48480;50.252;18.848;2022-12-29T14:01:12;23.30;;;13.10;;
62435;SDS011;48480;50.252;18.848;2022-12-29T14:08:50;22.10;;;13.00;;
62435;SDS011;48480;50.252;18.848;2022-12-29T14:11:20;23.70;;;12.40;;
62435;SDS011;48480;50.252;18.848;2022-12-29T14:13:49;26.60;;;14.20;;
62435;SDS011;48480;50.252;18.848;2022-12-29T14:16:26;27.90;;;16.30;;
62435;SDS011;48480;50.252;18.848;2022-12-29T14:18:56;24.80;;;15.90;;
62435;SDS011;48480;50.252;18.848;2022-12-29T14:21:29;29.20;;;19.80;;
62435;SDS011;48480;50.252;18.848;2022-12-29T14:24:00;36.00;;;20.50;;
62435;SDS011;48480;50.252;18.848;2022-12-29T14:29:41;28.40;;;17.90;;
62435;SDS011;48480;50.252;18.848;2022-12-29T14:34:59;26.10;;;15.00;;
62435;SDS011;48480;50.252;18.848;2022-12-29T14:42:40;32.00;;;17.40;;
62435;SDS011;48480;50.252;18.848;2022-12-29T14:47:51;33.40;;;18.30;;
62435;SDS011;48480;50.252;18.848;2022-12-29T14:58:06;31.10;;;19.90;;
62435;SDS011;48480;50.252;18.848;2022-12-29T15:00:39;29.90;;;17.30;;
62435;SDS011;48480;50.252;18.848;2022-12-29T15:03:06;27.50;;;15.70;;
62435;SDS011;48480;50.252;18.848;2022-12-29T15:05:41;27.20;;;16.10;;
62435;SDS011;48480;50.252;18.848;2022-12-29T15:08:12;32.70;;;20.10;;
62435;SDS011;48480;50.252;18.848;2022-12-29T15:10:42;37.30;;;21.50;;
62435;SDS011;48480;50.252;18.848;2022-12-29T15:13:21;36.80;;;21.80;;
62435;SDS011;48480;50.252;18.848;2022-12-29T15:15:50;46.40;;;25.00;;
62435;SDS011;48480;50.252;18.848;2022-12-29T15:18:25;37.40;;;21.30;;
62435;SDS011;48480;50.252;18.848;2022-12-29T15:21:03;40.10;;;19.90;;
62435;SDS011;48480;50.252;18.848;2022-12-29T15:23:36;35.40;;;20.10;;
62435;SDS011;48480;50.252;18.848;2022-12-29T15:26:06;35.90;;;19.50;;
62435;SDS011;48480;50.252;18.848;2022-12-29T15:28:40;29.10;;;18.00;;
62435;SDS011;48480;50.252;18.848;2022-12-29T15:31:15;31.20;;;17.20;;
62435;SDS011;48480;50.252;18.848;2022-12-29T15:33:47;26.40;;;13.90;;
62435;SDS011;48480;50.252;18.848;2022-12-29T15:36:21;31.10;;;17.50;;
62435;SDS011;48480;50.252;18.848;2022-12-29T15:38:51;31.80;;;17.50;;
62435;SDS011;48480;50.252;18.848;2022-12-29T15:44:38;38.30;;;21.90;;
62435;SDS011;48480;50.252;18.848;2022-12-29T15:52:07;42.30;;;22.30;;
62435;SDS011;48480;50.252;18.848;2022-12-29T15:54:39;38.40;;;20.80;;
62435;SDS011;48480;50.252;18.848;2022-12-29T15:57:14;44.50;;;24.50;;
62435;SDS011;48480;50.252;18.848;2022-12-29T15:59:52;43.40;;;23.50;;
62435;SDS011;48480;50.252;18.848;2022-12-29T16:02:19;41.20;;;22.40;;
62435;SDS011;48480;50.252;18.848;2022-12-29T16:04:47;35.60;;;19.00;;
62435;SDS011;48480;50.252;18.848;2022-12-29T16:09:54;41.60;;;21.90;;
62435;SDS011;48480;50.252;18.848;2022-12-29T16:12:35;39.70;;;21.50;;
62435;SDS011;48480;50.252;18.848;2022-12-29T16:15:05;40.10;;;22.60;;
62435;SDS011;48480;50.252;18.848;2022-12-29T16:17:37;35.70;;;21.30;;
62435;SDS011;48480;50.252;18.848;2022-12-29T16:20:17;40.00;;;22.60;;
62435;SDS011;48480;50.252;18.848;2022-12-29T16:23:02;36.70;;;21.80;;
62435;SDS011;48480;50.252;18.848;2022-12-29T16:25:32;41.30;;;22.30;;
62435;SDS011;48480;50.252;18.848;2022-12-29T16:28:01;36.70;;;21.90;;
62435;SDS011;48480;50.252;18.848;2022-12-29T16:30:34;38.70;;;19.30;;
62435;SDS011;48480;50.252;18.848;2022-12-29T16:33:01;36.90;;;21.00;;
62435;SDS011;48480;50.252;18.848;2022-12-29T16:35:49;37.50;;;20.40;;
62435;SDS011;48480;50.252;18.848;2022-12-29T16:38:17;38.80;;;21.00;;
62435;SDS011;48480;50.252;18.848;2022-12-29T16:40:50;33.80;;;20.80;;
62435;SDS011;48480;50.252;18.848;2022-12-29T16:43:21;32.20;;;18.50;;
62435;SDS011;48480;50.252;18.848;2022-12-29T16:50:44;32.20;;;18.50;;
62435;SDS011;48480;50.252;18.848;2022-12-29T16:55:46;31.20;;;16.80;;
62435;SDS011;48480;50.252;18.848;2022-12-29T16:58:16;35.00;;;19.30;;
62435;SDS011;48480;50.252;18.848;2022-12-29T17:00:46;26.90;;;14.60;;
62435;SDS011;48480;50.252;18.848;2022-12-29T17:03:12;28.30;;;15.00;;
62435;SDS011;48480;50.252;18.848;2022-12-29T17:05:39;30.90;;;17.80;;
62435;SDS011;48480;50.252;18.848;2022-12-29T17:08:17;32.80;;;17.30;;
62435;SDS011;48480;50.252;18.848;2022-12-29T17:10:51;24.20;;;14.80;;
62435;SDS011;48480;50.252;18.848;2022-12-29T17:13:38;24.10;;;14.50;;
62435;SDS011;48480;50.252;18.848;2022-12-29T17:16:07;23.80;;;14.20;;
62435;SDS011;48480;50.252;18.848;2022-12-29T17:18:38;21.70;;;13.80;;
62435;SDS011;48480;50.252;18.848;2022-12-29T17:21:04;22.90;;;15.00;;
62435;SDS011;48480;50.252;18.848;2022-12-29T17:23:32;18.50;;;12.50;;
62435;SDS011;48480;50.252;18.848;2022-12-29T17:25:59;19.60;;;12.20;;